Aérodrome :
LOGIN :

S'inscrire | Disclaimer

   EN    FR    IT 

 










Légende :    VFR   VFR Marginal   IFR   IFR Intensif   IFR Très Intensif
Visi : 
Plafond : 
>= 8 km
>= 3000ft
5 à 8 km
1000 à 3000 ft
1500m à 5 km
500 à 1000 ft
800 à 1500m
200 à 500 ft
< 800m
< 200 ft
Symboles :   Orages  Brouillard  Fortes neiges  Fortes précipitations  Vent > 20 kt
SIGMETs :   Divers  Orages  Givrage  Turbulence  Onde Orograph.  Cendres Volcan.







- Altitude de l'aérodrome : 412 ft
- Code IATA : ORE
- Voir les cartes d'approche


LFOJ - Orleans

DERNIER METAR :
  • 230000Z AUTO 05002KT CAVOK 14/08 Q0997

METARs EXPIRÉS :
  • 222330Z AUTO 07005KT CAVOK 14/08 Q0998
  • 222300Z AUTO 07005KT CAVOK 14/08 Q0998
  • 222230Z AUTO 06005KT CAVOK 14/09 Q0998
  • 222200Z AUTO 05004KT CAVOK 15/09 Q0998
  • 222130Z AUTO 07005KT CAVOK 15/08 Q0998

TAF TAF LFOJ
Valide du 22 à 09h jusqu'au 23 à 09h UTC


220800Z 2209/2309 06010KT CAVOK
PROB40
TEMPO 2214/2220 VRB15G30KT 4000 -SHRA BKN070TCU
PROB30
TEMPO 2307/2309 VRB15G25KT 4000 -SHRA BKN050TCU
Pas de NOTAMs connus pour ce terrain.



MET'MAP, la Météo Aéronautique d'un coup d'oeil ! - Copyright ORBIFLY Décembre 2007 - Disclaimer

ORBIFLY MET'MAP TEAM :

Programmation & Développement : Alexandra Zaïnal
Conception & Développement : Baudouin d'Aumeries
Co-Programmation & Développement : Marc-Olivier Méhu
Soutien technique & logistique : Manuel Goepfert

Contact : metmap@orbifly.com




SOURCES & CREDITS :

   NOAA